createdAt,value
2018-10-21T00:00:17.793Z,8.36
2018-10-21T00:00:58.225Z,8.34
2018-10-21T00:01:38.646Z,8.36
2018-10-21T00:02:19.084Z,8.34
2018-10-21T00:02:59.537Z,8.36
2018-10-21T00:03:39.905Z,8.42
2018-10-21T00:04:20.309Z,8.5
2018-10-21T00:05:00.694Z,8.47
2018-10-21T00:05:41.190Z,8.47
2018-10-21T00:06:21.592Z,8.63
2018-10-21T00:07:02.049Z,8.57
2018-10-21T00:07:42.395Z,8.63
2018-10-21T00:08:22.830Z,8.57
2018-10-21T00:09:03.250Z,8.47
2018-10-21T00:09:43.706Z,8.45
2018-10-21T00:10:24.076Z,8.4
2018-10-21T00:11:04.667Z,8.45
2018-10-21T00:11:45.018Z,8.46
2018-10-21T00:12:25.409Z,8.49
2018-10-21T00:13:05.793Z,8.52
2018-10-21T00:13:46.208Z,8.54
2018-10-21T00:14:26.655Z,8.54
2018-10-21T00:15:07.173Z,8.55
2018-10-21T00:15:47.522Z,8.58
2018-10-21T00:16:27.985Z,8.52
2018-10-21T00:17:08.300Z,8.36
2018-10-21T00:17:48.781Z,8.4
2018-10-21T00:18:29.147Z,8.42
2018-10-21T00:19:11.148Z,8.25
2018-10-21T00:19:51.529Z,8.28
2018-10-21T00:20:31.899Z,8.27
2018-10-21T00:21:12.337Z,8.29
2018-10-21T00:21:52.721Z,8.29
2018-10-21T00:22:33.139Z,8.2
2018-10-21T00:23:15.276Z,8.2
2018-10-21T00:23:55.689Z,8.13
2018-10-21T00:24:36.111Z,8.13
2018-10-21T00:25:16.527Z,8.13
2018-10-21T00:25:59.711Z,8.07
2018-10-21T00:26:40.082Z,8.12
2018-10-21T00:27:20.552Z,8.09
2018-10-21T00:28:00.846Z,8.07
2018-10-21T00:28:41.264Z,8.02
2018-10-21T00:29:21.689Z,8.02
2018-10-21T00:30:02.037Z,8.02
2018-10-21T00:30:42.419Z,8
2018-10-21T00:31:22.797Z,7.92
2018-10-21T00:32:03.218Z,7.94
2018-10-21T00:32:43.608Z,8.02
2018-10-21T00:33:24.019Z,8
2018-10-21T00:34:04.470Z,8.02
2018-10-21T00:34:44.908Z,8.09
2018-10-21T00:35:25.252Z,8.04
2018-10-21T00:36:05.723Z,8.09
2018-10-21T00:36:46.076Z,8.1
2018-10-21T00:37:26.474Z,8.03
2018-10-21T00:38:06.873Z,8.07
2018-10-21T00:38:47.301Z,8.12
2018-10-21T00:39:27.686Z,8.13
2018-10-21T00:40:08.103Z,8.07
2018-10-21T00:40:48.568Z,8.13
2018-10-21T00:41:28.981Z,8.2
2018-10-21T00:42:09.386Z,8.17
2018-10-21T00:42:49.814Z,8.29
2018-10-21T00:43:30.216Z,8.37
2018-10-21T00:44:10.588Z,8.5
2018-10-21T00:44:51.021Z,8.49
2018-10-21T00:45:31.356Z,8.58
2018-10-21T00:46:11.777Z,8.67
2018-10-21T00:46:52.170Z,8.67
2018-10-21T00:47:32.560Z,8.6
2018-10-21T00:48:13.008Z,8.45
2018-10-21T00:48:53.377Z,8.58
2018-10-21T00:49:33.816Z,8.55
2018-10-21T00:50:14.188Z,8.57
2018-10-21T00:50:54.593Z,8.6
2018-10-21T00:51:35.021Z,8.5
2018-10-21T00:52:15.399Z,8.49
2018-10-21T00:52:55.844Z,8.43
2018-10-21T00:53:36.243Z,8.4
2018-10-21T00:54:16.717Z,8.39
2018-10-21T00:54:57.097Z,8.4
2018-10-21T00:55:37.503Z,8.34
2018-10-21T00:56:17.928Z,8.37
2018-10-21T00:56:58.332Z,8.32
2018-10-21T00:57:38.739Z,8.34
2018-10-21T00:58:19.140Z,8.21
2018-10-21T00:58:59.525Z,8.22
2018-10-21T00:59:39.983Z,8.18
2018-10-21T01:00:20.392Z,8.2
2018-10-21T01:01:00.828Z,8.29
2018-10-21T01:01:41.257Z,8.36
2018-10-21T01:02:21.741Z,8.37
2018-10-21T01:03:02.132Z,8.63
2018-10-21T01:03:42.492Z,8.57
2018-10-21T01:04:22.903Z,8.61
2018-10-21T01:05:03.325Z,8.76
2018-10-21T01:05:43.725Z,8.76
2018-10-21T01:06:24.175Z,8.67
2018-10-21T01:07:04.612Z,8.71
2018-10-21T01:07:45.011Z,8.61
2018-10-21T01:08:25.379Z,8.71
2018-10-21T01:09:05.838Z,8.7
2018-10-21T01:09:46.261Z,8.7
2018-10-21T01:10:26.657Z,8.76
2018-10-21T01:11:07.038Z,8.79
2018-10-21T01:11:48.083Z,8.76
2018-10-21T01:12:28.516Z,8.75
2018-10-21T01:13:08.888Z,8.67
2018-10-21T01:13:49.298Z,8.71
2018-10-21T01:14:29.690Z,8.64
2018-10-21T01:15:10.146Z,8.6
2018-10-21T01:15:50.535Z,8.46
2018-10-21T01:16:30.915Z,8.49
2018-10-21T01:17:11.315Z,8.43
2018-10-21T01:17:51.705Z,8.31
2018-10-21T01:18:32.147Z,8.34
2018-10-21T01:19:12.570Z,8.18
2018-10-21T01:19:52.909Z,8.29
2018-10-21T01:20:33.307Z,8.29
2018-10-21T01:21:13.734Z,8.25
2018-10-21T01:21:54.136Z,8.29
2018-10-21T01:22:34.581Z,8.2
2018-10-21T01:23:14.988Z,8.14
2018-10-21T01:23:55.390Z,8.18
2018-10-21T01:24:35.774Z,8.18
2018-10-21T01:25:16.161Z,8.17
2018-10-21T01:25:56.548Z,8.17
2018-10-21T01:26:36.987Z,8.07
2018-10-21T01:27:17.471Z,7.99
2018-10-21T01:27:57.859Z,8.04
2018-10-21T01:28:38.243Z,7.92
2018-10-21T01:29:18.634Z,7.99
2018-10-21T01:29:59.100Z,7.92
2018-10-21T01:30:39.508Z,7.95
2018-10-21T01:31:19.880Z,7.82
2018-10-21T01:32:00.363Z,7.95
2018-10-21T01:32:40.808Z,7.84
2018-10-21T01:33:21.249Z,7.84
2018-10-21T01:34:01.710Z,7.85
2018-10-21T01:34:42.093Z,7.82
2018-10-21T01:35:22.497Z,7.84
2018-10-21T01:36:02.839Z,7.84
2018-10-21T01:36:43.310Z,7.81
2018-10-21T01:37:23.748Z,7.79
2018-10-21T01:38:04.179Z,7.74
2018-10-21T01:38:44.544Z,7.81
2018-10-21T01:39:24.925Z,7.79
2018-10-21T01:40:05.330Z,7.7
2018-10-21T01:40:45.758Z,7.74
2018-10-21T01:41:26.161Z,7.77
2018-10-21T01:42:06.503Z,7.69
2018-10-21T01:42:46.992Z,7.79
2018-10-21T01:43:30.297Z,7.77
2018-10-21T01:44:10.702Z,7.79
2018-10-21T01:44:51.085Z,7.82
2018-10-21T01:45:31.549Z,7.82
2018-10-21T01:46:12.080Z,7.86
2018-10-21T01:46:52.330Z,7.95
2018-10-21T01:47:32.710Z,7.96
2018-10-21T01:48:13.119Z,7.89
2018-10-21T01:48:53.488Z,7.94
2018-10-21T01:49:33.919Z,7.92
2018-10-21T01:50:14.308Z,7.84
2018-10-21T01:50:54.797Z,7.84
2018-10-21T01:51:35.228Z,7.82
2018-10-21T01:52:15.632Z,7.79
2018-10-21T01:52:56.053Z,7.76
2018-10-21T01:53:36.449Z,7.69
2018-10-21T01:54:16.799Z,7.74
2018-10-21T01:54:57.208Z,7.7
2018-10-21T01:55:37.686Z,7.69
2018-10-21T01:56:18.029Z,7.69
2018-10-21T01:56:58.433Z,7.73
2018-10-21T01:57:38.895Z,7.66
2018-10-21T01:58:19.233Z,7.63
2018-10-21T01:58:59.615Z,7.63
2018-10-21T01:59:40.044Z,7.67
2018-10-21T02:00:20.430Z,7.66
2018-10-21T02:01:00.930Z,7.67
2018-10-21T02:01:41.260Z,7.66
2018-10-21T02:02:21.675Z,7.57
2018-10-21T02:03:02.084Z,7.57
2018-10-21T02:03:42.492Z,7.57
2018-10-21T02:04:22.894Z,7.57
2018-10-21T02:05:03.325Z,7.62
2018-10-21T02:05:43.750Z,7.67
2018-10-21T02:06:24.131Z,7.58
2018-10-21T02:07:04.607Z,7.67
2018-10-21T02:07:44.965Z,7.62
2018-10-21T02:08:25.366Z,7.58
2018-10-21T02:09:05.794Z,7.58
2018-10-21T02:09:46.280Z,7.51
2018-10-21T02:10:26.615Z,7.6
2018-10-21T02:11:07.027Z,7.57
2018-10-21T02:11:47.453Z,7.6
2018-10-21T02:13:36.948Z,7.6
2018-10-21T02:14:17.364Z,7.58
2018-10-21T02:14:58.124Z,7.57
2018-10-21T02:17:13.596Z,7.57
2018-10-21T02:19:09.528Z,7.54
2018-10-21T02:19:50.564Z,7.57
2018-10-21T02:20:30.928Z,7.57
2018-10-21T02:21:11.408Z,7.57
2018-10-21T02:21:51.662Z,7.6
2018-10-21T02:22:32.084Z,7.57
2018-10-21T02:23:12.488Z,7.58
2018-10-21T02:23:52.888Z,7.47
2018-10-21T02:24:33.351Z,7.6
2018-10-21T02:25:13.696Z,7.57
2018-10-21T02:25:54.154Z,7.55
2018-10-21T02:26:34.560Z,7.55
2018-10-21T02:27:14.972Z,7.58
2018-10-21T02:27:55.349Z,7.58
2018-10-21T02:28:35.772Z,7.6
2018-10-21T02:29:16.192Z,7.67
2018-10-21T02:29:56.581Z,7.57
2018-10-21T02:30:36.990Z,7.57
2018-10-21T02:31:17.443Z,7.54
2018-10-21T02:31:57.788Z,7.62
2018-10-21T02:32:38.194Z,7.69
2018-10-21T02:33:18.672Z,7.57
2018-10-21T02:33:59.010Z,7.73
2018-10-21T02:34:39.366Z,7.74
2018-10-21T02:35:19.770Z,7.69
2018-10-21T02:36:00.208Z,7.73
2018-10-21T02:36:40.607Z,7.77
2018-10-21T02:37:20.946Z,7.86
2018-10-21T02:38:01.411Z,7.85
2018-10-21T02:38:41.813Z,7.84
2018-10-21T02:39:22.267Z,7.79
2018-10-21T02:40:02.655Z,7.76
2018-10-21T02:40:43.066Z,7.66
2018-10-21T02:41:23.559Z,7.69
2018-10-21T02:42:03.928Z,7.67
2018-10-21T02:42:44.287Z,7.6
2018-10-21T02:43:24.660Z,7.69
2018-10-21T02:44:05.077Z,7.79
2018-10-21T02:44:45.528Z,7.82
2018-10-21T02:45:25.965Z,7.91
2018-10-21T02:46:06.369Z,7.94
2018-10-21T02:46:47.257Z,7.94
2018-10-21T02:47:27.673Z,7.86
2018-10-21T02:48:08.087Z,7.82
2018-10-21T02:48:48.530Z,7.82
2018-10-21T02:49:28.956Z,7.76
2018-10-21T02:50:09.309Z,7.63
2018-10-21T02:50:49.714Z,7.52
2018-10-21T02:51:33.097Z,7.73
2018-10-21T02:52:13.430Z,7.71
2018-10-21T02:52:53.875Z,7.79
2018-10-21T02:53:34.293Z,7.74
2018-10-21T02:54:14.752Z,7.76
2018-10-21T02:54:55.201Z,7.69
2018-10-21T02:55:35.598Z,7.62
2018-10-21T02:56:15.991Z,7.57
2018-10-21T02:56:56.488Z,7.57
2018-10-21T02:57:36.827Z,7.58
2018-10-21T02:58:17.261Z,7.54
2018-10-21T02:58:57.680Z,7.57
2018-10-21T02:59:38.135Z,7.52
2018-10-21T03:00:18.544Z,7.58
2018-10-21T03:00:58.926Z,7.48
2018-10-21T03:01:39.362Z,7.54
2018-10-21T03:02:19.750Z,7.57
2018-10-21T03:03:00.179Z,7.45
2018-10-21T03:03:40.580Z,7.47
2018-10-21T03:04:20.971Z,7.51
2018-10-21T03:05:01.402Z,7.52
2018-10-21T03:05:41.775Z,7.48
2018-10-21T03:06:22.170Z,7.48
2018-10-21T03:07:02.637Z,7.37
2018-10-21T03:07:43.005Z,7.37
2018-10-21T03:08:23.441Z,7.36
2018-10-21T03:09:03.881Z,7.36
2018-10-21T03:09:44.242Z,7.26
2018-10-21T03:10:24.721Z,7.27
2018-10-21T03:11:05.112Z,7.21
2018-10-21T03:11:45.521Z,7.14
2018-10-21T03:12:25.963Z,7.11
2018-10-21T03:13:06.361Z,7.18
2018-10-21T03:13:46.772Z,7.18
2018-10-21T03:14:27.184Z,7.21
2018-10-21T03:15:07.714Z,7.21
2018-10-21T03:15:47.977Z,7.21
2018-10-21T03:16:28.355Z,7.23
2018-10-21T03:17:08.801Z,7.24
2018-10-21T03:17:49.194Z,7.3
2018-10-21T03:18:32.522Z,7.3
2018-10-21T03:19:12.926Z,7.33
2018-10-21T03:19:53.373Z,7.29
2018-10-21T03:20:33.781Z,7.24
2018-10-21T03:21:14.305Z,7.26
2018-10-21T03:21:54.639Z,7.21
2018-10-21T03:22:35.051Z,7.24
2018-10-21T03:23:15.420Z,7.3
2018-10-21T03:23:55.838Z,7.26
2018-10-21T03:24:36.201Z,7.18
2018-10-21T03:25:16.557Z,7.26
2018-10-21T03:25:56.949Z,7.21
2018-10-21T03:26:37.340Z,7.15
2018-10-21T03:27:17.800Z,7.14
2018-10-21T03:27:58.176Z,7.18
2018-10-21T03:28:38.601Z,7.14
2018-10-21T03:29:19.025Z,7.11
2018-10-21T03:29:59.403Z,7.14
2018-10-21T03:30:39.833Z,7.19
2018-10-21T03:31:20.189Z,7.11
2018-10-21T03:32:00.581Z,7.19
2018-10-21T03:32:41.088Z,7.16
2018-10-21T03:33:21.638Z,7.12
2018-10-21T03:34:02.172Z,7.12
2018-10-21T03:34:42.323Z,7.12
2018-10-21T03:35:22.745Z,7.07
2018-10-21T03:36:03.223Z,7
2018-10-21T03:36:43.557Z,7.08
2018-10-21T03:37:23.996Z,7
2018-10-21T03:38:04.345Z,7.09
2018-10-21T03:38:44.771Z,7.08
2018-10-21T03:39:25.164Z,7.11
2018-10-21T03:40:05.612Z,7.12
2018-10-21T03:40:45.937Z,7.11
2018-10-21T03:41:26.382Z,7.08
2018-10-21T03:42:06.844Z,7.09
2018-10-21T03:42:47.265Z,7.09
2018-10-21T03:43:27.729Z,7.12
2018-10-21T03:44:08.023Z,7.12
2018-10-21T03:44:48.440Z,7.14
2018-10-21T03:45:28.841Z,7.09
2018-10-21T03:46:09.300Z,7.11
2018-10-21T03:46:49.706Z,7.09
2018-10-21T03:47:30.003Z,7.11
2018-10-21T03:48:10.516Z,7.09
2018-10-21T03:48:50.926Z,7.04
2018-10-21T03:49:31.265Z,7.08
2018-10-21T03:50:11.724Z,7.08
2018-10-21T03:50:52.147Z,7
2018-10-21T03:51:32.576Z,6.93
2018-10-21T03:52:13.002Z,6.93
2018-10-21T03:52:53.400Z,6.97
2018-10-21T03:53:33.767Z,6.97
2018-10-21T03:54:14.166Z,6.93
2018-10-21T03:54:54.588Z,6.93
2018-10-21T03:55:35.035Z,6.81
2018-10-21T03:56:15.401Z,6.76
2018-10-21T03:56:55.824Z,6.81
2018-10-21T03:57:36.270Z,6.75
2018-10-21T03:58:16.741Z,6.68
2018-10-21T03:58:57.008Z,6.73
2018-10-21T03:59:37.356Z,6.64
2018-10-21T04:00:17.797Z,6.64
2018-10-21T04:00:58.183Z,6.58
2018-10-21T04:01:38.625Z,6.65
2018-10-21T04:02:19.104Z,6.57
2018-10-21T04:02:59.433Z,6.58
2018-10-21T04:03:39.844Z,6.54
2018-10-21T04:04:20.266Z,6.69
2018-10-21T04:05:00.680Z,6.61
2018-10-21T04:05:41.152Z,6.64
2018-10-21T04:06:22.645Z,6.72
2018-10-21T04:07:03.021Z,6.71
2018-10-21T04:07:43.521Z,6.65
2018-10-21T04:08:23.895Z,6.69
2018-10-21T04:09:04.248Z,6.69
2018-10-21T04:09:44.669Z,6.64
2018-10-21T04:10:25.059Z,6.71
2018-10-21T04:11:05.480Z,6.72
2018-10-21T04:11:45.857Z,6.68
2018-10-21T04:12:26.227Z,6.69
2018-10-21T04:13:06.645Z,6.71
2018-10-21T04:13:47.091Z,6.65
2018-10-21T04:14:27.502Z,6.69
2018-10-21T04:15:07.908Z,6.69
2018-10-21T04:15:48.326Z,6.71
2018-10-21T04:16:28.741Z,6.68
2018-10-21T04:17:09.158Z,6.83
2018-10-21T04:17:49.551Z,6.91
2018-10-21T04:18:29.906Z,6.97
2018-10-21T04:19:10.312Z,7.09
2018-10-21T04:19:50.724Z,7.12
2018-10-21T04:20:31.135Z,7.23
2018-10-21T04:21:11.526Z,7.26
2018-10-21T04:21:51.926Z,7.32
2018-10-21T04:22:32.385Z,7.32
2018-10-21T04:23:12.736Z,7.3
2018-10-21T04:23:53.136Z,7.33
2018-10-21T04:24:33.557Z,7.36
2018-10-21T04:25:14.022Z,7.32
2018-10-21T04:25:54.420Z,7.36
2018-10-21T04:26:34.811Z,7.33
2018-10-21T04:27:15.241Z,7.29
2018-10-21T05:07:59.217Z,5.74
2018-10-21T05:08:47.823Z,5.66
2018-10-21T05:09:36.063Z,5.62
2018-10-21T05:10:23.325Z,5.6
2018-10-21T05:11:05.168Z,5.65
2018-10-21T05:11:45.563Z,5.73
2018-10-21T05:12:26.035Z,5.67
2018-10-21T05:13:06.371Z,5.73
2018-10-21T05:13:46.794Z,5.7
2018-10-21T05:14:27.228Z,5.67
2018-10-21T05:15:07.614Z,5.65
2018-10-21T05:15:48.039Z,5.7
2018-10-21T05:16:28.452Z,5.63
2018-10-21T05:17:08.825Z,5.63
2018-10-21T05:17:49.251Z,5.6
2018-10-21T05:18:29.760Z,5.58
2018-10-21T05:19:11.722Z,5.52
2018-10-21T05:19:52.129Z,5.51
2018-10-21T05:20:32.522Z,5.48
2018-10-21T05:21:12.945Z,5.56
2018-10-21T05:21:53.383Z,5.66
2018-10-21T05:22:33.793Z,5.66
2018-10-21T05:23:14.250Z,5.59
2018-10-21T05:23:54.695Z,5.63
2018-10-21T05:24:35.031Z,5.67
2018-10-21T05:25:15.476Z,5.69
2018-10-21T05:25:55.805Z,5.7
2018-10-21T05:26:36.202Z,5.87
2018-10-21T05:27:16.648Z,6.01
2018-10-21T05:27:57.148Z,6.08
2018-10-21T05:28:37.493Z,6.11
2018-10-21T05:29:17.899Z,6.14
2018-10-21T05:29:58.288Z,6.19
2018-10-21T05:30:38.693Z,6.16
2018-10-21T05:31:19.102Z,6.14
2018-10-21T05:31:59.493Z,6.17
2018-10-21T05:32:41.872Z,6.28
2018-10-21T05:33:22.284Z,6.3
2018-10-21T05:34:02.731Z,6.27
2018-10-21T05:34:43.086Z,6.35
2018-10-21T05:35:23.505Z,6.3
2018-10-21T05:36:03.928Z,6.38
2018-10-21T05:36:44.376Z,6.4
2018-10-21T05:37:24.739Z,6.43
2018-10-21T05:38:05.141Z,6.4
2018-10-21T05:38:45.562Z,6.48
2018-10-21T05:39:25.949Z,6.39
2018-10-21T05:40:06.457Z,6.4
2018-10-21T05:40:46.760Z,6.45
2018-10-21T05:41:27.163Z,6.39
2018-10-21T05:42:07.772Z,6.4
2018-10-21T05:42:48.117Z,6.4
2018-10-21T05:43:28.518Z,6.35
2018-10-21T05:44:08.902Z,6.35
2018-10-21T05:44:49.312Z,6.33
2018-10-21T05:45:29.752Z,6.45
2018-10-21T05:46:10.265Z,6.39
2018-10-21T05:46:50.708Z,6.54
2018-10-21T05:47:31.041Z,6.57
2018-10-21T05:48:11.423Z,6.55
2018-10-21T05:48:51.827Z,6.61
2018-10-21T05:49:32.216Z,6.55
2018-10-21T05:50:12.663Z,6.63
2018-10-21T05:50:53.017Z,6.68
2018-10-21T05:51:33.455Z,6.68
2018-10-21T05:52:13.892Z,6.63
2018-10-21T05:52:54.310Z,6.64
2018-10-21T05:53:34.734Z,6.69
2018-10-21T05:54:15.138Z,6.71
2018-10-21T05:54:55.552Z,6.64
2018-10-21T05:55:35.923Z,6.68
2018-10-21T05:56:16.333Z,6.61
2018-10-21T05:56:56.734Z,6.58
2018-10-21T05:57:37.150Z,6.54
2018-10-21T05:58:17.618Z,6.54
2018-10-21T05:58:59.753Z,6.54
2018-10-21T05:59:40.174Z,6.54
2018-10-21T06:00:20.583Z,6.54
2018-10-21T06:01:01.002Z,6.69
2018-10-21T06:01:41.452Z,6.64
2018-10-21T06:02:21.849Z,6.68
2018-10-21T06:03:02.503Z,6.65
2018-10-21T06:03:42.754Z,6.68
2018-10-21T06:04:23.104Z,6.72
2018-10-21T06:05:05.239Z,6.76
2018-10-21T06:05:45.690Z,6.91
2018-10-21T06:06:26.181Z,7.04
2018-10-21T06:07:06.468Z,7.01
2018-10-21T06:07:46.960Z,7.18
2018-10-21T06:08:27.381Z,7.15
2018-10-21T06:09:07.733Z,7.19
2018-10-21T06:09:49.475Z,7.26
2018-10-21T06:10:32.288Z,7.16
2018-10-21T06:11:12.764Z,7.24
2018-10-21T06:11:53.226Z,7.18
2018-10-21T06:12:33.635Z,7.09
2018-10-21T06:13:14.502Z,7.05
2018-10-21T06:13:54.930Z,7.04
2018-10-21T06:14:35.361Z,7.08
2018-10-21T06:15:16.161Z,7.11
2018-10-21T06:15:56.669Z,7.12
2018-10-21T06:16:37.023Z,7.14
2018-10-21T06:17:18.436Z,7.21
2018-10-21T06:17:58.824Z,7.18
2018-10-21T06:18:40.144Z,7.19
2018-10-21T06:19:20.515Z,7.24
2018-10-21T06:20:00.883Z,7.21
2018-10-21T06:20:41.333Z,7.19
2018-10-21T06:21:21.718Z,7.23
2018-10-21T06:22:02.207Z,7.23
2018-10-21T06:22:42.548Z,7.24
2018-10-21T06:23:22.962Z,7.16
2018-10-21T06:24:03.341Z,7.15
2018-10-21T06:24:43.714Z,7.09
2018-10-21T06:25:24.263Z,7.08
2018-10-21T06:26:04.618Z,7.08
2018-10-21T06:26:45.006Z,7.19
2018-10-21T06:27:25.416Z,7.18
2018-10-21T06:28:05.836Z,7.11
2018-10-21T06:28:46.292Z,7.24
2018-10-21T06:29:26.626Z,7.41
2018-10-21T06:30:07.039Z,7.52
2018-10-21T06:32:22.254Z,7.77
2018-10-21T06:34:12.538Z,7.73
2018-10-21T06:34:58.458Z,7.82
2018-10-21T06:35:42.670Z,7.86
2018-10-21T06:36:23.107Z,7.95
2018-10-21T06:38:39.700Z,8.31
2018-10-21T06:39:27.212Z,8.46
2018-10-21T06:40:07.461Z,8.57
2018-10-21T06:40:47.915Z,8.82
2018-10-21T06:41:28.221Z,8.93
2018-10-21T06:42:08.637Z,9.13
2018-10-21T06:42:49.128Z,9.34
2018-10-21T06:43:29.523Z,9.5
2018-10-21T06:44:09.895Z,9.65
2018-10-21T06:44:50.355Z,9.73
2018-10-21T06:45:34.260Z,9.78
2018-10-21T06:46:14.483Z,9.92
2018-10-21T06:48:03.797Z,9.92
2018-10-21T06:48:46.342Z,9.98
2018-10-21T06:49:27.314Z,9.91
2018-10-21T06:51:25.325Z,10.01
2018-10-21T06:52:05.680Z,9.93
2018-10-21T06:52:52.531Z,9.92
2018-10-21T06:55:41.484Z,9.92
2018-10-21T06:56:45.712Z,10.01
2018-10-21T06:57:26.123Z,10.11
2018-10-21T06:58:06.441Z,10.11
2018-10-21T06:58:46.822Z,10.2
2018-10-21T06:59:27.232Z,10.17
2018-10-21T07:01:14.607Z,10.43
2018-10-21T07:01:54.943Z,10.46
2018-10-21T07:02:35.497Z,10.54
2018-10-21T07:03:28.632Z,10.69
2018-10-21T07:04:09.162Z,10.8
2018-10-21T07:04:49.478Z,10.84
2018-10-21T07:05:29.906Z,10.86
2018-10-21T07:06:10.308Z,10.84
2018-10-21T07:06:50.681Z,10.73
2018-10-21T07:07:35.437Z,10.86
2018-10-21T07:08:15.864Z,10.88
2018-10-21T07:08:56.270Z,10.88
2018-10-21T07:09:36.677Z,11.06
2018-10-21T07:10:17.158Z,11.11
2018-10-21T07:11:01.451Z,11.06
2018-10-21T07:11:39.137Z,11.12
2018-10-21T07:12:19.538Z,11.06
2018-10-21T07:12:59.991Z,11.02
2018-10-21T07:13:40.391Z,11.01
2018-10-21T07:14:20.804Z,11.03
2018-10-21T07:15:01.990Z,11.06
2018-10-21T07:15:42.544Z,11.17
2018-10-21T07:16:22.940Z,11.2
2018-10-21T07:17:05.516Z,11.08
2018-10-21T07:17:45.850Z,11.08
2018-10-21T07:18:43.328Z,11.23
2018-10-21T07:19:23.774Z,11.2
2018-10-21T07:20:04.189Z,11.23
2018-10-21T07:20:44.591Z,11.28
2018-10-21T07:21:24.978Z,11.16
2018-10-21T07:23:24.817Z,11.35
2018-10-21T07:24:05.495Z,11.51
2018-10-21T07:24:45.973Z,11.56
2018-10-21T07:25:26.378Z,11.64
2018-10-21T07:26:06.768Z,11.7
2018-10-21T07:26:53.499Z,11.64
2018-10-21T07:27:33.954Z,11.64
2018-10-21T07:28:14.381Z,11.64
2018-10-21T07:28:54.699Z,11.74
2018-10-21T07:29:35.101Z,11.75
2018-10-21T07:30:15.554Z,11.84
2018-10-21T07:30:55.980Z,12.15
2018-10-21T07:31:36.373Z,12.38
2018-10-21T07:32:17.001Z,12.61
2018-10-21T07:32:57.297Z,12.56
2018-10-21T07:33:37.710Z,12.67
2018-10-21T07:34:19.947Z,12.76
2018-10-21T07:35:00.211Z,12.95
2018-10-21T07:35:40.614Z,13.09
2018-10-21T07:36:21.435Z,13.21
2018-10-21T07:40:13.967Z,13.61
2018-10-21T07:40:54.644Z,13.66
2018-10-21T07:41:35.082Z,13.61
2018-10-21T07:42:15.811Z,13.53
2018-10-21T07:42:58.766Z,13.59
2018-10-21T07:43:39.198Z,13.61
2018-10-21T07:44:19.728Z,13.71
2018-10-21T07:46:47.687Z,13.93
2018-10-21T07:47:28.140Z,13.93
2018-10-21T07:48:08.646Z,14.06
2018-10-21T07:48:50.062Z,14.06
2018-10-21T07:49:30.601Z,13.98
2018-10-21T07:50:11.113Z,14.04
2018-10-21T07:50:51.573Z,14.04
2018-10-21T07:51:31.936Z,14.02
2018-10-21T07:52:13.674Z,14.16
2018-10-21T07:52:54.067Z,14.16
2018-10-21T07:53:34.529Z,14.11
2018-10-21T07:55:27.003Z,13.98
2018-10-21T07:56:07.429Z,14.01
2018-10-21T07:56:47.771Z,14.16
2018-10-21T07:57:29.260Z,14.24
2018-10-21T07:58:09.928Z,14.27
2018-10-21T07:58:50.219Z,14.16
2018-10-21T08:01:34.989Z,14.3
2018-10-21T08:02:20.677Z,14.27
2018-10-21T08:03:06.582Z,14.3
2018-10-21T08:03:47.097Z,14.36
2018-10-21T08:04:28.198Z,14.42
2018-10-21T08:05:08.455Z,14.54
2018-10-21T08:05:49.333Z,14.63
2018-10-21T08:06:29.629Z,14.59
2018-10-21T08:07:10.430Z,14.6
2018-10-21T08:07:51.216Z,14.72
2018-10-21T08:08:32.587Z,14.79
2018-10-21T08:09:13.302Z,14.98
2018-10-21T08:09:53.531Z,15.3
2018-10-21T08:10:33.894Z,15.41
2018-10-21T08:11:14.374Z,15.41
2018-10-21T08:11:58.679Z,15.46
2018-10-21T08:12:38.930Z,15.62
2018-10-21T08:13:19.504Z,15.6
2018-10-21T08:14:00.284Z,15.62
2018-10-21T08:14:42.527Z,15.58
2018-10-21T08:15:22.465Z,15.38
2018-10-21T08:16:06.508Z,15.3
2018-10-21T08:16:46.897Z,15.2
2018-10-21T08:17:27.531Z,15.03
2018-10-21T08:18:07.800Z,14.9
2018-10-21T08:18:48.295Z,14.69
2018-10-21T08:19:28.663Z,14.79
2018-10-21T08:20:09.091Z,14.75
2018-10-21T08:20:49.492Z,14.78
2018-10-21T08:21:30.563Z,14.93
2018-10-21T08:22:12.185Z,14.95
2018-10-21T08:22:52.510Z,15.03
2018-10-21T08:23:33.101Z,14.97
2018-10-21T08:24:14.333Z,14.95
2018-10-21T08:24:54.751Z,15.03
2018-10-21T08:25:36.059Z,15
2018-10-21T08:26:16.254Z,14.72
2018-10-21T08:26:56.581Z,14.6
2018-10-21T08:27:36.941Z,14.63
2018-10-21T08:28:17.513Z,14.61
2018-10-21T08:28:58.654Z,14.63
2018-10-21T08:29:39.108Z,14.75
2018-10-21T08:30:19.550Z,14.75
2018-10-21T08:30:59.922Z,14.79
2018-10-21T08:31:40.373Z,14.8
2018-10-21T08:32:20.772Z,14.94
2018-10-21T08:33:01.191Z,15.12
2018-10-21T08:33:42.913Z,15.13
2018-10-21T08:34:23.307Z,15.16
2018-10-21T08:35:03.992Z,15.04
2018-10-21T08:35:44.742Z,15.03
2018-10-21T08:36:25.345Z,15.12
2018-10-21T08:37:05.792Z,15.23
2018-10-21T08:37:48.074Z,15.31
2018-10-21T08:38:28.633Z,15.3
2018-10-21T08:39:08.921Z,15.43
2018-10-21T08:39:49.396Z,15.52
2018-10-21T08:40:30.270Z,15.66
2018-10-21T08:41:10.828Z,15.84
2018-10-21T08:41:51.158Z,16.04
2018-10-21T08:42:31.671Z,16.08
2018-10-21T08:43:12.431Z,16.13
2018-10-21T08:43:52.825Z,16.18
2018-10-21T08:44:33.919Z,16.25
2018-10-21T08:46:50.610Z,16.55
2018-10-21T08:47:36.670Z,16.92
2018-10-21T08:48:18.569Z,17.07
2018-10-21T08:48:59.108Z,17.14
2018-10-21T08:49:39.614Z,17.28
2018-10-21T08:50:19.964Z,17.33
2018-10-21T08:51:00.363Z,17.49
2018-10-21T08:51:40.878Z,17.77
2018-10-21T08:52:21.480Z,17.92
2018-10-21T08:53:02.160Z,17.92
2018-10-21T08:53:42.523Z,17.96
2018-10-21T08:54:22.867Z,18.05
2018-10-21T08:55:03.323Z,18.17
2018-10-21T08:55:43.769Z,18.19
2018-10-21T08:56:24.371Z,18.31
2018-10-21T08:57:04.928Z,18.34
2018-10-21T09:01:54.545Z,18.64
2018-10-21T09:02:36.002Z,18.69
2018-10-21T09:03:16.421Z,18.89
2018-10-21T09:03:56.796Z,19.07
2018-10-21T09:04:37.212Z,19.3
2018-10-21T09:05:17.658Z,19.49
2018-10-21T09:05:58.017Z,19.61
2018-10-21T09:06:38.539Z,19.72
2018-10-21T09:07:19.074Z,19.89
2018-10-21T09:07:59.298Z,20.15
2018-10-21T09:08:39.722Z,20.53
2018-10-21T09:09:20.562Z,20.68
2018-10-21T09:10:00.967Z,20.94
2018-10-21T09:10:42.228Z,21.08
2018-10-21T09:11:23.009Z,21.16
2018-10-21T09:12:03.740Z,21.19
2018-10-21T09:12:44.032Z,21.24
2018-10-21T09:13:24.551Z,21.34
2018-10-21T09:14:04.836Z,21.55
2018-10-21T09:14:45.250Z,21.64
2018-10-21T09:15:27.310Z,21.56
2018-10-21T09:16:07.727Z,21.4
2018-10-21T09:16:48.257Z,21.38
2018-10-21T09:17:28.540Z,21.31
2018-10-21T09:18:09.999Z,21.28
2018-10-21T09:18:50.282Z,21.3
2018-10-21T09:19:34.669Z,21.16
2018-10-21T09:20:15.333Z,21.3
2018-10-21T09:20:55.794Z,21.4
2018-10-21T09:21:36.213Z,21.43
2018-10-21T09:22:18.440Z,21.52
2018-10-21T09:22:58.736Z,21.43
2018-10-21T09:23:39.858Z,21.27
2018-10-21T09:24:22.415Z,21.06
2018-10-21T09:25:02.879Z,21
2018-10-21T09:25:43.237Z,21.01
2018-10-21T09:27:58.792Z,20.91
2018-10-21T09:28:40.298Z,21.05
2018-10-21T09:29:20.725Z,21.08
2018-10-21T09:31:08.900Z,20.97
2018-10-21T09:31:52.172Z,20.75
2018-10-21T09:32:32.572Z,20.69
2018-10-21T09:33:13.171Z,20.57
2018-10-21T09:33:55.056Z,20.66
2018-10-21T09:34:35.576Z,20.56
2018-10-21T09:35:16.294Z,20.56
2018-10-21T09:35:57.530Z,20.4
2018-10-21T09:36:38.077Z,20.3
2018-10-21T09:37:18.954Z,20.1
2018-10-21T09:37:59.550Z,20.13
2018-10-21T09:38:39.977Z,20.15
2018-10-21T09:39:20.425Z,20.25
2018-10-21T09:40:00.823Z,20.31
2018-10-21T09:40:41.382Z,20.27
2018-10-21T09:41:21.691Z,20.27
2018-10-21T09:42:02.128Z,20.3
2018-10-21T09:42:45.334Z,20.02
2018-10-21T09:43:25.830Z,19.71
2018-10-21T09:44:06.295Z,19.52
2018-10-21T09:44:46.837Z,19.46
2018-10-21T09:45:27.247Z,19.38
2018-10-21T09:46:07.711Z,19.55
2018-10-21T09:46:48.130Z,19.72
2018-10-21T09:47:28.607Z,19.92
2018-10-21T09:48:10.128Z,20.08
2018-10-21T09:48:51.318Z,20.19
2018-10-21T09:49:31.805Z,20.3
2018-10-21T09:50:12.277Z,20.2
2018-10-21T09:50:53.003Z,20.26
2018-10-21T09:51:33.764Z,20.4
2018-10-21T09:52:14.246Z,20.5
2018-10-21T09:52:54.611Z,20.66
2018-10-21T09:53:35.078Z,21.06
2018-10-21T09:54:15.434Z,21.22
2018-10-21T09:54:56.091Z,21.38
2018-10-21T09:55:36.487Z,21.53
2018-10-21T09:56:16.946Z,21.59
2018-10-21T09:56:57.390Z,21.67
2018-10-21T09:57:37.893Z,21.59
2018-10-21T09:58:18.372Z,21.48
2018-10-21T09:58:58.815Z,21.36
2018-10-21T09:59:39.257Z,21.27
2018-10-21T10:00:19.688Z,21.28
2018-10-21T10:01:00.764Z,21.37
2018-10-21T10:01:41.169Z,21.3
2018-10-21T10:02:21.607Z,21.28
2018-10-21T10:03:02.014Z,21.26
2018-10-21T10:03:42.633Z,21.3
2018-10-21T10:04:22.944Z,21.11
2018-10-21T10:05:03.357Z,20.97
2018-10-21T10:05:44.035Z,20.69
2018-10-21T10:06:24.216Z,20.48
2018-10-21T10:07:04.723Z,20.53
2018-10-21T10:07:45.061Z,20.68
2018-10-21T10:08:25.526Z,20.58
2018-10-21T10:09:05.912Z,20.48
2018-10-21T10:09:46.380Z,20.44
2018-10-21T10:10:26.899Z,20.41